Time;durP1;ratioP1;P1;durP2;ratioP2;P2;SDS_P1;SDS_P2;PMS_P1;PMS_P2;Temp;Humidity;BMP_temperature;BMP_pressure;BME280_temperature;BME280_humidity;BME280_pressure;Samples;Min_cycle;Max_cycle;Signal;HPM_P1;HPM_P2
2023/08/25 00:02:40;;;;;;;7.80;3.63;;;;;;;20.22;100.00;100306.34;6097390;28;20075;-67
2023/08/25 00:05:39;;;;;;;6.17;3.57;;;;;;;20.26;100.00;100313.00;6097300;28;20287;-67
2023/08/25 00:08:34;;;;;;;7.20;3.60;;;;;;;20.13;100.00;100305.00;6097542;28;20033;-66
2023/08/25 00:11:29;;;;;;;7.70;4.10;;;;;;;20.02;100.00;100306.53;6097552;28;20037;-67
2023/08/25 00:14:25;;;;;;;8.68;3.85;;;;;;;20.12;100.00;100309.53;6096677;28;20048;-67
2023/08/25 00:17:21;;;;;;;6.47;3.88;;;;;;;20.14;100.00;100291.28;6097659;28;20523;-66
2023/08/25 00:20:16;;;;;;;6.55;3.80;;;;;;;20.19;100.00;100274.50;6097702;28;20053;-67
2023/08/25 00:23:12;;;;;;;7.85;3.85;;;;;;;20.34;100.00;100290.34;6097361;28;20031;-67
2023/08/25 00:26:08;;;;;;;8.57;3.93;;;;;;;20.13;100.00;100260.03;6096480;28;20067;-67
2023/08/25 00:29:03;;;;;;;5.15;3.63;;;;;;;20.24;100.00;100274.69;6097327;28;20075;-66
2023/08/25 00:31:59;;;;;;;5.45;3.65;;;;;;;20.30;100.00;100273.00;6096663;28;20064;-66
2023/08/25 00:34:54;;;;;;;7.57;3.63;;;;;;;20.31;100.00;100250.38;6096807;28;20033;-67
2023/08/25 00:37:49;;;;;;;7.80;3.40;;;;;;;20.38;100.00;100262.78;6097310;28;20037;-67
2023/08/25 00:40:45;;;;;;;5.60;3.30;;;;;;;20.38;100.00;100267.34;6097227;28;20028;-66
2023/08/25 00:43:40;;;;;;;9.37;3.60;;;;;;;20.18;100.00;100244.06;6096110;28;20043;-67
2023/08/25 00:46:35;;;;;;;7.67;3.50;;;;;;;20.21;100.00;100258.94;6097393;28;20025;-66
2023/08/25 00:49:31;;;;;;;5.45;3.83;;;;;;;20.18;100.00;100251.31;6097334;28;20617;-67
2023/08/25 00:52:26;;;;;;;5.93;4.20;;;;;;;20.16;100.00;100242.63;6080071;28;20037;-67
2023/08/25 00:55:22;;;;;;;9.10;4.13;;;;;;;20.35;100.00;100249.75;6101319;28;20041;-67
2023/08/25 00:58:18;;;;;;;7.38;3.47;;;;;;;20.39;100.00;100233.94;6101613;28;20095;-66
2023/08/25 01:01:13;;;;;;;6.13;3.72;;;;;;;20.50;100.00;100252.06;6102103;28;20029;-67
2023/08/25 01:04:08;;;;;;;6.87;3.57;;;;;;;20.56;100.00;100240.41;6101133;28;20060;-67
2023/08/25 01:07:04;;;;;;;6.60;2.97;;;;;;;20.61;100.00;100241.41;6101767;28;20037;-67
2023/08/25 01:09:59;;;;;;;7.13;2.97;;;;;;;20.67;100.00;100237.00;6101560;28;20041;-67
2023/08/25 01:13:16;;;;;;;5.43;2.90;;;;;;;20.82;100.00;100240.13;6101519;28;20499;-67
2023/08/25 01:16:16;;;;;;;5.10;2.95;;;;;;;20.74;100.00;100221.56;6077002;28;20021;-67
2023/08/25 01:19:41;;;;;;;4.65;2.65;;;;;;;20.83;100.00;100220.22;6101161;28;20472;-67
2023/08/25 01:22:52;;;;;;;5.72;2.55;;;;;;;20.83;100.00;100230.19;6083714;28;20048;-67
2023/08/25 01:25:50;;;;;;;5.60;2.95;;;;;;;20.78;100.00;100212.00;6100227;28;20032;-66
2023/08/25 01:28:50;;;;;;;5.65;3.10;;;;;;;20.75;100.00;100228.63;6084880;28;20143;-66
2023/08/25 01:31:46;;;;;;;6.03;2.90;;;;;;;20.57;100.00;100199.75;6101198;28;20064;-67
2023/08/25 01:34:42;;;;;;;6.97;2.50;;;;;;;20.70;100.00;100198.81;6100412;28;20043;-67
2023/08/25 01:37:42;;;;;;;8.10;2.67;;;;;;;20.71;100.00;100222.00;6087721;28;20063;-67
2023/08/25 01:40:41;;;;;;;5.25;2.47;;;;;;;20.55;100.00;100204.56;6101902;28;20079;-67
2023/08/25 01:43:39;;;;;;;5.28;2.40;;;;;;;20.44;100.00;100208.00;6082306;28;20403;-66
2023/08/25 01:46:36;;;;;;;6.90;2.78;;;;;;;20.50;100.00;100187.41;6100766;28;20051;-67
2023/08/25 01:49:31;;;;;;;6.25;2.67;;;;;;;20.53;100.00;100186.97;6100425;28;20033;-67
2023/08/25 01:52:27;;;;;;;4.78;2.83;;;;;;;20.38;100.00;100192.75;6083106;28;20059;-67
2023/08/25 01:55:22;;;;;;;5.35;2.65;;;;;;;20.41;100.00;100204.94;6082729;28;20044;-66
2023/08/25 01:58:18;;;;;;;8.15;2.75;;;;;;;20.56;100.00;100197.31;6105165;28;20124;-66
2023/08/25 02:01:13;;;;;;;6.40;3.27;;;;;;;20.57;100.00;100182.81;6103130;28;20036;-67
2023/08/25 02:04:08;;;;;;;5.13;2.63;;;;;;;20.68;100.00;100171.28;6098765;28;20380;-66
2023/08/25 02:07:04;;;;;;;6.33;2.80;;;;;;;20.74;100.00;100167.66;6100412;28;20106;-67
2023/08/25 02:09:59;;;;;;;4.22;2.53;;;;;;;20.69;100.00;100186.38;6100500;28;20025;-67
2023/08/25 02:12:54;;;;;;;5.47;2.67;;;;;;;20.42;100.00;100193.09;6100270;28;20029;-67
2023/08/25 02:15:51;;;;;;;6.00;3.00;;;;;;;20.36;100.00;100184.03;6099607;28;20108;-66
2023/08/25 02:18:47;;;;;;;7.50;3.03;;;;;;;20.29;100.00;100194.06;6100209;28;20107;-67
2023/08/25 02:21:42;;;;;;;6.53;2.60;;;;;;;20.27;100.00;100198.84;6099856;28;20043;-67
2023/08/25 02:24:37;;;;;;;5.27;2.50;;;;;;;20.05;100.00;100193.00;6099337;28;20036;-67
2023/08/25 02:27:32;;;;;;;5.30;2.60;;;;;;;20.05;100.00;100211.03;6100088;28;20469;-67
2023/08/25 02:30:28;;;;;;;4.67;2.80;;;;;;;19.86;100.00;100202.06;6099820;28;20036;-66
2023/08/25 02:33:23;;;;;;;6.20;2.70;;;;;;;19.67;100.00;100196.81;6099393;28;20040;-67
2023/08/25 02:36:18;;;;;;;5.17;2.63;;;;;;;19.58;100.00;100188.19;6099364;28;20275;-67
2023/08/25 02:39:14;;;;;;;6.37;2.80;;;;;;;19.58;100.00;100199.78;6099699;28;20045;-66
2023/08/25 02:42:09;;;;;;;6.88;2.95;;;;;;;19.50;100.00;100191.13;6099865;28;20036;-67
2023/08/25 02:45:05;;;;;;;8.10;3.13;;;;;;;19.54;100.00;100195.84;6098636;28;20033;-66
2023/08/25 02:48:01;;;;;;;5.65;2.83;;;;;;;19.53;100.00;100179.94;6099164;28;20492;-66
2023/08/25 02:50:56;;;;;;;5.53;2.83;;;;;;;19.44;100.00;100165.09;6098854;28;20051;-67
2023/08/25 02:53:51;;;;;;;5.23;2.60;;;;;;;19.47;100.00;100165.50;6098762;28;20567;-67
2023/08/25 02:56:47;;;;;;;6.67;3.20;;;;;;;19.24;100.00;100177.81;6099477;28;20035;-66
2023/08/25 02:59:42;;;;;;;5.30;2.90;;;;;;;19.16;100.00;100172.69;6098488;28;20033;-67
2023/08/25 03:02:37;;;;;;;4.60;2.77;;;;;;;19.11;100.00;100170.63;6105486;28;20052;-67
2023/08/25 03:05:33;;;;;;;4.73;2.93;;;;;;;19.12;100.00;100168.78;6098292;28;20275;-67
2023/08/25 03:08:28;;;;;;;6.27;2.63;;;;;;;19.11;100.00;100154.50;6099011;28;20387;-66
2023/08/25 03:11:23;;;;;;;5.23;2.70;;;;;;;19.09;100.00;100150.38;6098924;28;20052;-66
2023/08/25 03:14:18;;;;;;;8.03;2.93;;;;;;;19.01;100.00;100154.97;6098190;28;20110;-67
2023/08/25 03:17:14;;;;;;;7.22;2.67;;;;;;;18.82;100.00;100160.44;6097662;28;20396;-66
2023/08/25 03:20:09;;;;;;;5.17;2.80;;;;;;;18.74;100.00;100169.56;6098726;28;20152;-67
2023/08/25 03:23:05;;;;;;;4.68;2.63;;;;;;;18.55;100.00;100173.13;6098457;28;20017;-67
2023/08/25 03:26:02;;;;;;;8.45;3.50;;;;;;;18.40;100.00;100161.75;6097862;28;20052;-67
2023/08/25 03:28:57;;;;;;;6.80;3.38;;;;;;;18.53;100.00;100160.97;6098531;28;20028;-67
2023/08/25 03:31:52;;;;;;;5.70;3.00;;;;;;;18.31;100.00;100157.66;6098627;28;20033;-66
2023/08/25 03:34:49;;;;;;;4.27;2.83;;;;;;;18.14;100.00;100143.03;6097579;28;20024;-67
2023/08/25 03:37:44;;;;;;;7.20;3.40;;;;;;;18.30;100.00;100143.41;6098385;28;20025;-67
2023/08/25 03:40:40;;;;;;;8.40;3.10;;;;;;;18.52;100.00;100165.50;6098219;28;20052;-67
2023/08/25 03:43:36;;;;;;;5.83;2.83;;;;;;;18.22;100.00;100156.22;6097428;28;20037;-67
2023/08/25 03:46:32;;;;;;;8.73;3.38;;;;;;;18.09;100.00;100165.13;6098364;28;20059;-67
2023/08/25 03:49:30;;;;;;;6.85;3.10;;;;;;;18.00;100.00;100176.28;6097931;28;20480;-67
2023/08/25 03:52:25;;;;;;;7.40;3.70;;;;;;;17.96;100.00;100175.06;6098195;28;20120;-66
2023/08/25 03:55:21;;;;;;;6.10;3.77;;;;;;;17.83;100.00;100160.59;6097052;28;20032;-66
2023/08/25 03:58:17;;;;;;;7.60;3.13;;;;;;;17.89;100.00;100182.25;6098220;28;20124;-67
2023/08/25 04:01:12;;;;;;;7.95;3.25;;;;;;;17.97;100.00;100190.94;6098324;28;20029;-66
2023/08/25 04:04:07;;;;;;;5.47;3.33;;;;;;;17.87;100.00;100178.97;6096955;28;20056;-67
2023/08/25 04:07:03;;;;;;;7.43;3.33;;;;;;;17.90;100.00;100176.72;6097925;28;20122;-67
2023/08/25 04:09:58;;;;;;;5.72;2.95;;;;;;;17.83;100.00;100176.69;6079941;28;20021;-66
2023/08/25 04:12:53;;;;;;;5.47;3.20;;;;;;;17.87;100.00;100171.75;6097634;28;20040;-66
2023/08/25 04:15:57;;;;;;;5.43;3.17;;;;;;;18.00;100.00;100181.66;6097231;28;20032;-66
2023/08/25 04:18:52;;;;;;;8.63;3.72;;;;;;;18.10;100.00;100176.72;6097497;28;20279;-67
2023/08/25 04:21:48;;;;;;;7.03;3.03;;;;;;;18.10;100.00;100192.81;6097708;28;20043;-67
2023/08/25 04:24:43;;;;;;;7.53;3.35;;;;;;;18.19;100.00;100184.31;6096785;28;20535;-67
2023/08/25 04:27:39;;;;;;;6.93;2.70;;;;;;;18.02;100.00;100179.59;6097184;28;20249;-66
2023/08/25 04:30:34;;;;;;;8.77;3.20;;;;;;;17.92;100.00;100174.63;6097635;28;20626;-67
2023/08/25 04:33:29;;;;;;;5.15;2.75;;;;;;;18.11;100.00;100194.44;6096876;28;20040;-67
2023/08/25 04:36:25;;;;;;;6.10;3.17;;;;;;;18.00;100.00;100173.59;6105256;28;20393;-66
2023/08/25 04:39:20;;;;;;;5.23;2.83;;;;;;;18.33;100.00;100191.31;6098695;28;20025;-67
2023/08/25 04:42:15;;;;;;;6.97;3.10;;;;;;;18.26;100.00;100176.28;6097169;28;20032;-66
2023/08/25 04:45:12;;;;;;;6.32;2.60;;;;;;;18.41;100.00;100168.78;6096096;28;20377;-67
2023/08/25 04:48:08;;;;;;;6.45;2.95;;;;;;;18.68;100.00;100174.94;6097135;28;20025;-66
2023/08/25 04:51:03;;;;;;;6.47;2.80;;;;;;;18.65;100.00;100164.63;6097319;28;20036;-67
2023/08/25 04:53:59;;;;;;;9.53;2.83;;;;;;;18.78;100.00;100164.59;6096416;28;20719;-67
2023/08/25 04:56:54;;;;;;;5.57;2.63;;;;;;;18.92;100.00;100183.13;6097416;28;20115;-66
2023/08/25 04:59:49;;;;;;;5.50;2.70;;;;;;;19.11;100.00;100181.38;6097167;28;20276;-67
2023/08/25 05:02:48;;;;;;;7.43;2.50;;;;;;;19.09;100.00;100163.81;6096311;28;20390;-66
2023/08/25 05:05:44;;;;;;;5.97;2.80;;;;;;;19.21;100.00;100183.63;6095885;28;20527;-67
2023/08/25 05:08:39;;;;;;;8.18;3.30;;;;;;;19.06;100.00;100169.63;6096542;28;20032;-67
2023/08/25 05:11:34;;;;;;;8.38;3.42;;;;;;;19.12;100.00;100176.84;6096975;28;20480;-67
2023/08/25 05:14:30;;;;;;;4.07;2.97;;;;;;;19.13;100.00;100162.38;6095760;28;20040;-67
2023/08/25 05:17:25;;;;;;;6.00;3.43;;;;;;;19.17;100.00;100158.19;6096867;28;20033;-66
2023/08/25 05:20:21;;;;;;;6.30;3.47;;;;;;;19.18;100.00;100155.31;6097012;28;20060;-67
2023/08/25 05:23:16;;;;;;;5.43;3.42;;;;;;;19.31;100.00;100157.09;6095952;28;20124;-67
2023/08/25 05:26:13;;;;;;;5.27;2.77;;;;;;;19.53;100.00;100161.94;6096781;28;20456;-66
2023/08/25 05:29:08;;;;;;;8.50;3.05;;;;;;;19.71;100.00;100177.31;6096676;28;20025;-67
2023/08/25 05:32:04;;;;;;;5.77;2.53;;;;;;;19.93;100.00;100175.91;6096975;28;20059;-67
2023/08/25 05:34:59;;;;;;;4.13;2.60;;;;;;;20.43;100.00;100186.69;6096105;28;20040;-66
2023/08/25 05:37:54;;;;;;;4.73;2.57;;;;;;;20.88;100.00;100188.03;6096569;28;20044;-68
2023/08/25 05:40:50;;;;;;;4.60;2.03;;;;;;;21.07;100.00;100184.28;6099470;28;20037;-67
2023/08/25 05:43:45;;;;;;;8.53;2.47;;;;;;;21.18;99.36;100183.53;6100164;28;20083;-67
2023/08/25 05:46:40;;;;;;;6.63;2.50;;;;;;;21.42;99.23;100186.31;6101222;28;20060;-67
2023/08/25 05:49:36;;;;;;;7.50;2.85;;;;;;;21.37;97.38;100178.91;6101095;28;20025;-67
2023/08/25 05:52:31;;;;;;;9.80;2.87;;;;;;;21.42;97.95;100195.22;6100698;28;20040;-67
2023/08/25 05:55:27;;;;;;;5.70;2.70;;;;;;;21.63;96.37;100183.09;6099617;28;20037;-67
2023/08/25 05:58:22;;;;;;;7.43;2.47;;;;;;;21.95;95.75;100187.19;6100658;28;20079;-66
2023/08/25 06:01:18;;;;;;;5.00;2.13;;;;;;;22.19;93.53;100186.16;6100859;28;20041;-67
2023/08/25 06:04:13;;;;;;;5.88;2.60;;;;;;;22.62;90.38;100209.28;6099643;28;20029;-67
2023/08/25 06:07:08;;;;;;;4.93;2.57;;;;;;;22.49;90.47;100194.97;6099992;28;20036;-67
2023/08/25 06:10:04;;;;;;;5.17;2.33;;;;;;;22.79;87.29;100205.66;6100351;28;20029;-67
2023/08/25 06:12:59;;;;;;;4.95;2.55;;;;;;;23.04;88.91;100213.47;6100034;28;20047;-67
2023/08/25 06:15:55;;;;;;;7.10;2.33;;;;;;;22.68;87.74;100201.06;6099748;28;20029;-66
2023/08/25 06:18:50;;;;;;;6.07;2.80;;;;;;;22.87;87.76;100207.16;6100380;28;20025;-67
2023/08/25 06:21:45;;;;;;;4.27;2.10;;;;;;;22.95;87.43;100204.91;6099855;28;20290;-66
2023/08/25 06:24:41;;;;;;;6.63;2.33;;;;;;;22.84;88.61;100213.03;6099590;28;20041;-66
2023/08/25 06:27:36;;;;;;;5.75;2.20;;;;;;;22.84;86.18;100223.84;6099507;28;20270;-67
2023/08/25 06:30:33;;;;;;;6.10;2.90;;;;;;;22.68;86.98;100203.78;6100193;28;20538;-66
2023/08/25 06:33:31;;;;;;;5.68;2.20;;;;;;;23.12;84.77;100204.97;6099355;28;20036;-67
2023/08/25 06:36:26;;;;;;;4.28;2.22;;;;;;;22.97;86.15;100201.94;6099701;28;20512;-67
2023/08/25 06:39:22;;;;;;;3.27;1.93;;;;;;;23.40;83.66;100210.41;6099879;28;20079;-67
2023/08/25 06:42:17;;;;;;;5.78;2.28;;;;;;;23.27;82.46;100201.72;6099748;28;20488;-66
2023/08/25 06:45:13;;;;;;;5.68;2.20;;;;;;;23.52;81.63;100192.25;6099321;28;20096;-67
2023/08/25 06:48:09;;;;;;;4.70;2.10;;;;;;;23.34;81.98;100207.84;6099357;28;20036;-67
2023/08/25 06:51:04;;;;;;;5.47;2.20;;;;;;;23.18;80.81;100192.38;6099652;28;20032;-67
2023/08/25 06:54:01;;;;;;;4.77;2.10;;;;;;;23.40;81.48;100182.56;6098598;28;20055;-67
2023/08/25 06:56:56;;;;;;;6.40;2.10;;;;;;;23.64;79.22;100175.94;6099348;28;20033;-67
2023/08/25 06:59:51;;;;;;;4.27;2.13;;;;;;;23.93;78.21;100187.53;6099567;28;20401;-67
2023/08/25 07:02:47;;;;;;;4.87;2.03;;;;;;;23.97;77.77;100183.28;6098890;28;20037;-67
2023/08/25 07:05:42;;;;;;;6.20;2.05;;;;;;;24.08;77.37;100193.22;6098189;28;20029;-67
2023/08/25 07:08:38;;;;;;;5.73;2.20;;;;;;;24.05;77.67;100202.63;6099093;28;20044;-67
2023/08/25 07:11:33;;;;;;;6.47;2.50;;;;;;;24.10;78.11;100201.94;6099191;28;20079;-67
2023/08/25 07:14:30;;;;;;;6.20;2.40;;;;;;;24.37;74.19;100178.50;6103294;28;20322;-67
2023/08/25 07:17:25;;;;;;;5.47;2.50;;;;;;;24.76;72.58;100193.69;6102194;28;20040;-67
2023/08/25 07:20:21;;;;;;;5.27;2.23;;;;;;;24.75;73.29;100167.66;6098516;28;20029;-67
2023/08/25 07:23:18;;;;;;;3.65;2.00;;;;;;;24.96;71.31;100157.88;6098210;28;20052;-67
2023/08/25 07:26:13;;;;;;;5.30;2.28;;;;;;;24.84;71.16;100147.16;6098777;28;20446;-67
2023/08/25 07:29:08;;;;;;;5.87;2.23;;;;;;;25.13;70.03;100141.53;6098530;28;20033;-67
2023/08/25 07:32:04;;;;;;;6.50;2.17;;;;;;;25.03;69.55;100130.56;6098267;28;20839;-67
2023/08/25 07:34:59;;;;;;;5.22;2.20;;;;;;;25.14;71.18;100126.88;6097950;28;20032;-67
2023/08/25 07:37:55;;;;;;;6.70;2.43;;;;;;;25.24;69.95;100154.94;6098444;28;20041;-67
2023/08/25 07:40:50;;;;;;;4.47;2.20;;;;;;;25.57;67.44;100142.25;6098246;28;20025;-67
2023/08/25 07:43:46;;;;;;;6.63;2.50;;;;;;;25.40;69.84;100151.31;6099761;28;20132;-68
2023/08/25 07:46:42;;;;;;;5.22;2.50;;;;;;;25.31;69.95;100176.44;6098071;28;20071;-67
2023/08/25 07:49:38;;;;;;;5.28;2.42;;;;;;;24.98;70.72;100182.03;6098941;28;20461;-67
2023/08/25 07:52:33;;;;;;;5.53;2.13;;;;;;;25.24;70.95;100197.56;6098303;28;20047;-68
2023/08/25 07:55:28;;;;;;;4.53;2.13;;;;;;;25.21;71.05;100188.03;6097404;28;20045;-67
2023/08/25 07:58:24;;;;;;;8.00;2.22;;;;;;;25.02;71.15;100181.28;6098381;28;20076;-67
2023/08/25 08:01:20;;;;;;;9.43;2.60;;;;;;;25.10;71.29;100185.44;6097827;28;20037;-67
2023/08/25 08:04:15;;;;;;;7.70;2.42;;;;;;;24.95;70.99;100198.84;6096965;28;20101;-67
2023/08/25 08:07:10;;;;;;;5.97;2.20;;;;;;;25.27;71.18;100214.16;6098086;28;20422;-67
2023/08/25 08:10:06;;;;;;;7.03;2.60;;;;;;;25.41;70.78;100201.00;6097215;28;20040;-68
2023/08/25 08:13:02;;;;;;;5.43;2.22;;;;;;;25.39;71.11;100205.84;6098119;28;20047;-67
2023/08/25 08:15:57;;;;;;;3.70;2.67;;;;;;;25.52;70.47;100210.91;6097294;28;20428;-68
2023/08/25 08:18:53;;;;;;;9.35;2.83;;;;;;;25.61;71.38;100231.13;6097895;28;20063;-68
2023/08/25 08:21:48;;;;;;;5.93;2.83;;;;;;;25.52;70.04;100227.22;6097757;28;20384;-67
2023/08/25 08:24:48;;;;;;;6.17;2.57;;;;;;;25.63;71.65;100218.09;6096525;28;20280;-67
2023/08/25 08:27:43;;;;;;;6.65;2.75;;;;;;;25.63;69.50;100201.78;6097710;28;20028;-68
2023/08/25 08:30:38;;;;;;;5.63;2.43;;;;;;;25.56;70.61;100212.06;6097392;28;20032;-68
2023/08/25 08:33:34;;;;;;;6.47;2.45;;;;;;;25.96;69.13;100201.56;6096753;28;20195;-68
2023/08/25 08:36:29;;;;;;;6.13;2.40;;;;;;;26.37;65.70;100202.72;6097280;28;20546;-67
2023/08/25 08:39:24;;;;;;;5.57;2.43;;;;;;;26.58;64.45;100198.22;6097498;28;20036;-68
2023/08/25 08:42:20;;;;;;;5.17;1.90;;;;;;;26.67;64.76;100202.06;6097688;28;20388;-67
2023/08/25 08:45:17;;;;;;;4.23;1.90;;;;;;;26.64;64.72;100205.31;6096247;28;20107;-67
2023/08/25 08:48:13;;;;;;;5.88;2.13;;;;;;;26.88;65.28;100206.56;6097453;28;20271;-67
2023/08/25 08:51:09;;;;;;;5.57;2.03;;;;;;;27.14;63.58;100191.97;6097026;28;20045;-68
2023/08/25 08:54:05;;;;;;;3.13;1.90;;;;;;;27.17;61.91;100196.91;6096543;28;20060;-68
2023/08/25 08:57:00;;;;;;;4.60;2.17;;;;;;;27.29;61.59;100188.47;6097092;28;20037;-68
2023/08/25 08:59:58;;;;;;;4.00;1.93;;;;;;;27.10;63.90;100201.75;6079252;28;20028;-68
2023/08/25 09:02:54;;;;;;;8.50;2.20;;;;;;;27.22;63.64;100204.25;6097338;28;20263;-68
2023/08/25 09:05:52;;;;;;;6.05;2.03;;;;;;;26.56;63.77;100200.38;6078454;28;20412;-68
2023/08/25 09:08:50;;;;;;;4.43;1.85;;;;;;;26.70;63.16;100214.34;6079244;28;20053;-67
2023/08/25 09:11:47;;;;;;;4.07;1.88;;;;;;;26.35;65.70;100204.06;6079260;28;20040;-67
2023/08/25 09:14:42;;;;;;;6.60;2.00;;;;;;;26.79;63.09;100220.94;6097429;28;20033;-68
2023/08/25 09:17:38;;;;;;;4.53;1.70;;;;;;;27.14;61.62;100230.09;6101907;28;20029;-68
2023/08/25 09:20:40;;;;;;;6.38;2.00;;;;;;;27.46;61.54;100229.13;6087241;28;20120;-68
2023/08/25 09:23:50;;;;;;;5.80;1.83;;;;;;;27.48;60.38;100221.50;6101163;28;20063;-68
2023/08/25 09:26:46;;;;;;;8.70;1.83;;;;;;;26.91;63.05;100230.53;6101426;28;20032;-68
2023/08/25 09:29:42;;;;;;;5.90;2.03;;;;;;;26.48;63.58;100242.50;6101681;28;20071;-67
2023/08/25 09:32:37;;;;;;;5.10;2.17;;;;;;;26.44;65.80;100232.41;6100963;28;20040;-67
2023/08/25 09:35:33;;;;;;;5.13;2.28;;;;;;;26.95;61.53;100234.38;6100379;28;20473;-67
2023/08/25 09:38:28;;;;;;;4.88;1.83;;;;;;;27.37;61.45;100239.69;6101323;28;20040;-67
2023/08/25 09:41:25;;;;;;;6.70;2.00;;;;;;;27.38;61.51;100240.53;6103247;28;20485;-68
2023/08/25 09:44:20;;;;;;;4.40;2.00;;;;;;;27.17;61.75;100243.19;6102386;28;20025;-68
2023/08/25 09:47:16;;;;;;;4.57;1.80;;;;;;;26.88;61.63;100236.50;6118894;28;20028;-67
2023/08/25 09:50:18;;;;;;;5.07;1.73;;;;;;;26.84;62.13;100242.75;6113380;28;20279;-67
2023/08/25 09:53:13;;;;;;;8.82;2.38;;;;;;;26.85;62.89;100237.03;6105942;28;20044;-67
2023/08/25 09:56:09;;;;;;;7.78;2.00;;;;;;;27.35;63.38;100238.34;6086309;28;20041;-67
2023/08/25 09:59:06;;;;;;;4.78;2.45;;;;;;;27.43;61.30;100259.63;6081069;28;20025;-67
2023/08/25 10:02:01;;;;;;;8.65;2.80;;;;;;;27.04;62.05;100265.44;6100270;28;20029;-67
2023/08/25 10:04:58;;;;;;;7.53;2.83;;;;;;;26.64;63.24;100262.47;6082135;28;20037;-67
2023/08/25 10:07:54;;;;;;;6.82;2.75;;;;;;;26.76;63.20;100244.03;6100776;28;20096;-67
2023/08/25 10:10:49;;;;;;;5.65;2.50;;;;;;;26.76;63.06;100265.00;6100273;28;20184;-68
2023/08/25 10:13:48;;;;;;;4.63;1.80;;;;;;;26.43;65.66;100271.56;6099952;28;20048;-67
2023/08/25 10:16:51;;;;;;;7.28;2.78;;;;;;;26.39;65.69;100267.75;6100361;28;20029;-67
2023/08/25 10:19:49;;;;;;;4.88;2.47;;;;;;;26.18;67.04;100276.78;6100634;28;20037;-67
2023/08/25 10:22:46;;;;;;;4.07;2.20;;;;;;;25.84;68.52;100284.34;6081983;28;20037;-67
2023/08/25 10:25:42;;;;;;;4.28;2.60;;;;;;;25.64;70.70;100273.25;6099254;28;20068;-67
2023/08/25 10:28:38;;;;;;;4.70;2.58;;;;;;;25.33;71.74;100264.72;6100162;28;20029;-67
2023/08/25 10:31:33;;;;;;;5.07;2.83;;;;;;;25.20;74.54;100272.41;6099909;28;20039;-67
2023/08/25 10:34:45;;;;;;;3.60;2.65;;;;;;;24.86;73.80;100296.13;6099508;28;20041;-67
2023/08/25 10:37:41;;;;;;;5.25;2.47;;;;;;;24.75;76.58;100283.47;6089530;28;20033;-67
2023/08/25 10:40:41;;;;;;;5.23;2.50;;;;;;;24.52;78.95;100257.34;6100035;28;20036;-67
2023/08/25 10:43:37;;;;;;;6.60;2.78;;;;;;;24.41;82.36;100274.53;6101471;28;20044;-67
2023/08/25 10:46:33;;;;;;;5.43;3.05;;;;;;;23.97;87.52;100264.56;6081899;28;20031;-66
2023/08/25 10:49:37;;;;;;;9.98;3.25;;;;;;;23.45;97.57;100272.78;6099686;28;20037;-64
2023/08/25 10:52:32;;;;;;;11.50;3.70;;;;;;;22.73;100.00;100265.25;6098932;28;20052;-64
2023/08/25 10:55:29;;;;;;;8.95;3.95;;;;;;;22.21;100.00;100259.66;6099003;28;20064;-64
2023/08/25 10:58:31;;;;;;;9.23;4.15;;;;;;;21.67;100.00;100230.16;6099296;28;20029;-64
2023/08/25 11:01:28;;;;;;;6.60;3.83;;;;;;;21.45;100.00;100212.81;6099657;28;20095;-64
2023/08/25 11:04:29;;;;;;;9.18;4.03;;;;;;;21.28;100.00;100229.66;6080813;28;20039;-64
2023/08/25 11:07:43;;;;;;;8.50;4.25;;;;;;;21.34;100.00;100215.25;6099109;28;20538;-64
2023/08/25 11:10:38;;;;;;;8.63;4.45;;;;;;;20.92;100.00;100226.97;6102646;28;20423;-64
2023/08/25 11:13:36;;;;;;;7.40;4.53;;;;;;;20.94;100.00;100259.91;6098295;28;20044;-63
2023/08/25 11:16:32;;;;;;;11.68;5.60;;;;;;;20.95;100.00;100288.53;6099015;28;20029;-64
2023/08/25 11:19:27;;;;;;;12.63;5.47;;;;;;;20.56;100.00;100264.66;6098947;28;20029;-64
2023/08/25 11:22:23;;;;;;;11.17;5.47;;;;;;;20.61;100.00;100272.91;6081265;28;20033;-64
2023/08/25 11:25:18;;;;;;;10.83;6.77;;;;;;;20.59;100.00;100283.91;6097664;28;20283;-65
2023/08/25 11:28:13;;;;;;;11.35;6.45;;;;;;;20.56;100.00;100289.75;6098562;28;20033;-65
2023/08/25 11:31:10;;;;;;;10.02;6.60;;;;;;;20.47;100.00;100250.66;6098725;28;20083;-65
2023/08/25 11:34:05;;;;;;;10.87;6.37;;;;;;;20.45;100.00;100233.91;6095706;28;20098;-64
2023/08/25 11:37:01;;;;;;;11.15;6.65;;;;;;;20.57;100.00;100242.88;6101552;28;20099;-64
2023/08/25 11:39:56;;;;;;;12.97;7.60;;;;;;;20.72;100.00;100234.44;6094830;28;20041;-64
2023/08/25 11:42:51;;;;;;;13.33;7.87;;;;;;;20.50;100.00;100215.19;6085549;28;20060;-64
2023/08/25 11:45:46;;;;;;;11.40;7.40;;;;;;;20.61;100.00;100232.50;6094735;28;20188;-64
2023/08/25 11:48:42;;;;;;;12.83;6.87;;;;;;;20.60;100.00;100247.81;6076938;28;20679;-64
2023/08/25 11:51:37;;;;;;;12.63;7.40;;;;;;;20.31;100.00;100264.69;6095166;28;20389;-64
2023/08/25 11:54:48;;;;;;;12.30;7.90;;;;;;;20.38;100.00;100288.88;6074823;28;20279;-64
2023/08/25 11:57:49;;;;;;;11.93;7.10;;;;;;;20.43;100.00;100310.59;6094208;28;20041;-64
2023/08/25 12:00:45;;;;;;;10.95;7.07;;;;;;;20.48;100.00;100305.38;6094390;28;20112;-65
2023/08/25 12:03:43;;;;;;;11.25;7.10;;;;;;;20.33;100.00;100323.75;6094096;28;20039;-64
2023/08/25 12:06:39;;;;;;;14.07;6.55;;;;;;;20.43;100.00;100351.00;6093570;28;20039;-64
2023/08/25 12:09:34;;;;;;;14.70;8.27;;;;;;;20.23;100.00;100331.41;6094254;28;20037;-64
2023/08/25 12:12:31;;;;;;;13.27;8.55;;;;;;;20.20;100.00;100317.34;6076138;28;20060;-64
2023/08/25 12:15:26;;;;;;;16.10;9.38;;;;;;;20.19;100.00;100302.22;6094015;28;20029;-64
2023/08/25 12:18:22;;;;;;;17.90;10.83;;;;;;;20.10;100.00;100268.56;6095043;28;20031;-63
2023/08/25 12:21:18;;;;;;;19.45;10.20;;;;;;;20.13;100.00;100272.69;6094587;28;20033;-63
2023/08/25 12:24:14;;;;;;;18.80;10.63;;;;;;;19.98;100.00;100221.84;6108619;28;20127;-64
2023/08/25 12:27:09;;;;;;;19.83;10.77;;;;;;;19.95;100.00;100238.41;6096176;28;20526;-63
2023/08/25 12:30:05;;;;;;;15.97;11.00;;;;;;;19.84;100.00;100214.91;6096438;28;20306;-63
2023/08/25 12:33:01;;;;;;;16.67;10.13;;;;;;;19.93;100.00;100229.75;6094572;28;20057;-63
2023/08/25 12:35:59;;;;;;;17.57;9.73;;;;;;;19.86;100.00;100210.16;6093457;28;20438;-63
2023/08/25 12:38:55;;;;;;;14.68;9.85;;;;;;;19.80;100.00;100208.31;6094252;28;20024;-64
2023/08/25 12:41:50;;;;;;;18.43;10.97;;;;;;;19.80;100.00;100188.66;6094551;28;20435;-64
2023/08/25 12:44:46;;;;;;;15.38;9.38;;;;;;;19.71;100.00;100214.16;6092655;28;20057;-63
2023/08/25 12:47:41;;;;;;;12.77;7.37;;;;;;;19.73;100.00;100279.38;6094263;28;20384;-64
2023/08/25 12:50:36;;;;;;;14.80;6.57;;;;;;;19.77;100.00;100313.69;6098556;28;20033;-64
2023/08/25 12:53:31;;;;;;;7.80;5.43;;;;;;;19.69;100.00;100348.94;6096193;28;20041;-64
2023/08/25 12:56:27;;;;;;;9.20;4.93;;;;;;;19.51;100.00;100354.19;6099176;28;20065;-64
2023/08/25 12:59:22;;;;;;;8.43;4.53;;;;;;;19.46;100.00;100360.19;6098630;28;20706;-64
2023/08/25 13:02:17;;;;;;;8.00;4.83;;;;;;;19.40;100.00;100320.72;6098750;28;20044;-64
2023/08/25 13:05:13;;;;;;;8.60;4.88;;;;;;;19.45;100.00;100268.97;6098445;28;20037;-65
2023/08/25 13:08:08;;;;;;;7.33;4.70;;;;;;;19.45;100.00;100162.22;6098618;28;20033;-64
2023/08/25 13:11:04;;;;;;;7.93;4.70;;;;;;;19.77;100.00;100235.66;6098508;28;20029;-65
2023/08/25 13:13:59;;;;;;;10.30;5.20;;;;;;;20.20;100.00;100287.72;6097943;28;20045;-65
2023/08/25 13:16:54;;;;;;;8.50;4.65;;;;;;;20.07;100.00;100290.53;6097436;28;20037;-65
2023/08/25 13:19:50;;;;;;;9.20;4.13;;;;;;;20.29;100.00;100304.47;6098233;28;20056;-65
2023/08/25 13:22:45;;;;;;;8.03;4.67;;;;;;;20.60;100.00;100292.84;6097570;28;20134;-65
2023/08/25 13:25:40;;;;;;;7.87;4.40;;;;;;;20.58;100.00;100270.66;6097559;28;20041;-65
2023/08/25 13:28:36;;;;;;;6.57;4.20;;;;;;;20.83;100.00;100290.31;6098145;28;20511;-65
2023/08/25 13:31:31;;;;;;;7.77;4.07;;;;;;;20.77;100.00;100257.00;6098417;28;20487;-65
2023/08/25 13:34:26;;;;;;;6.70;3.90;;;;;;;21.00;100.00;100250.94;6097124;28;20045;-65